Date,TemperatureHighF,TemperatureAvgF,TemperatureLowF,DewpointHighF,DewpointAvgF,DewpointLowF,HumidityHigh,HumidityAvg,HumidityLow,PressureMaxIn,PressureMinIn,WindSpeedMaxMPH,WindSpeedAvgMPH,GustSpeedMaxMPH,PrecipitationSumIn
2013-1-1,77,63,50,61,56,49,97,82,56,30.27,30.08,7,1,18,0.00
2013-1-2,80,66,55,68,62,53,97,86,62,30.11,30.01,6,1,12,0.00
2013-1-3,72,63,56,65,61,53,97,92,80,30.23,30.07,8,2,17,0.13
2013-1-4,58,55,52,57,54,51,97,97,96,30.33,30.21,8,3,16,0.15
2013-1-5,73,60,48,62,55,46,97,84,66,30.36,30.24,5,2,11,0.00
2013-1-6,80,66,59,68,62,56,96,87,65,30.26,30.10,6,1,11,0.01
2013-1-7,68,60,52,60,56,49,96,87,70,30.28,30.17,6,2,13,0.10
2013-1-8,80,69,60,70,65,59,98,90,70,30.28,30.18,4,1,11,0.00
2013-1-9,80,71,67,72,68,66,97,91,73,30.35,30.25,2,0,7,0.00
2013-1-10,82,70,62,71,65,60,99,86,56,30.36,30.27,3,1,12,0.01
2013-1-11,82,68,57,71,63,56,98,85,58,30.31,30.19,4,0,9,0.01
2013-1-12,82,68,55,69,62,55,98,85,52,30.25,30.13,3,0,8,0.00
2013-1-13,81,67,55,68,62,54,98,84,56,30.22,30.11,3,0,7,0.00
2013-1-14,81,67,59,65,62,58,97,86,56,30.20,30.16,3,0,6,0.01
2013-1-15,81,70,61,68,64,60,98,84,59,30.20,30.09,3,0,9,0.00
2013-1-16,82,66,59,67,56,-100,98,78,50,30.15,30.04,5,-35,11,0.00
2013-1-17,76,54,50,69,36,-100,98,75,70,30.16,30.01,16,-138,22,0.03
2013-1-18,67,52,40,55,45,34,87,77,65,30.34,30.16,11,5,22,0.00
2013-1-19,73,62,53,61,56,49,93,82,64,30.35,30.19,7,4,15,0.00
2013-1-20,72,62,56,62,57,52,95,84,67,30.24,30.09,6,2,10,0.00
2013-1-21,74,63,57,60,56,54,90,78,59,30.15,30.03,4,1,9,0.00
2013-1-22,61,54,44,54,42,35,87,63,38,30.33,30.11,7,2,12,0.00
2013-1-23,67,51,36,42,36,31,93,63,28,30.42,30.32,5,1,10,0.00
2013-1-24,73,58,41,53,47,38,94,71,43,30.37,30.25,6,1,11,0.00
2013-1-25,75,60,47,58,51,46,97,75,44,30.35,30.21,5,1,10,0.00
2013-1-26,75,59,44,59,52,43,97,80,51,30.32,30.20,6,1,12,0.00
2013-1-27,78,62,49,62,56,48,98,85,53,30.36,30.27,5,0,10,0.00
2013-1-28,79,68,58,65,62,56,97,83,62,30.39,30.27,4,1,9,0.00
2013-1-29,83,70,60,71,64,59,98,83,52,30.30,30.14,5,1,13,0.00
2013-1-30,84,73,64,67,65,62,97,78,54,30.16,29.91,9,4,19,0.00
2013-1-31,71,56,41,66,42,27,94,63,27,30.28,29.91,12,3,19,0.04
2013-2-1,70,51,37,38,32,24,80,52,20,30.41,30.27,7,1,14,0.00
2013-2-2,71,52,38,47,39,34,89,65,33,30.36,30.19,6,1,14,0.00
2013-2-3,70,54,40,52,42,34,93,66,36,30.23,30.09,9,2,16,0.00
2013-2-4,70,53,41,46,39,33,95,65,28,30.18,30.09,3,0,7,0.00
2013-2-5,75,58,40,52,45,36,89,65,42,30.15,30.04,6,1,13,0.00
2013-2-6,76,65,55,63,58,52,89,77,59,30.17,30.07,2,0,6,0.00
2013-2-7,80,69,59,65,62,57,97,79,55,30.13,29.90,7,2,15,0.01
2013-2-8,78,68,57,65,60,55,94,77,51,30.12,29.90,9,3,17,0.00
2013-2-9,74,60,50,57,53,49,100,80,54,30.26,30.11,5,2,13,0.01
2013-2-10,79,63,48,61,55,47,97,77,50,30.32,30.21,5,1,11,0.00
2013-2-11,83,69,56,64,60,55,97,75,50,30.25,30.10,7,2,13,0.00
2013-2-12,86,71,60,69,64,58,97,78,49,30.14,29.96,8,2,16,0.00
2013-2-13,84,70,61,71,66,60,96,88,60,30.01,29.85,11,4,19,0.35
2013-2-14,65,60,55,61,58,54,98,93,76,30.11,29.96,6,1,15,0.32
2013-2-15,69,57,50,58,52,49,97,86,53,30.14,30.00,7,2,12,0.01
2013-2-16,67,55,46,55,43,28,100,69,41,30.19,29.95,12,4,28,0.01
2013-2-17,55,43,31,28,19,10,74,42,18,30.40,30.18,8,2,19,0.00
2013-2-18,33,31,30,27,25,24,83,77,71,30.41,30.39,0,0,3,0.00
2013-2-21,77,67,62,65,63,61,95,86,66,30.09,30.03,2,0,10,0.00
2013-2-22,87,72,60,70,64,59,98,80,43,30.13,30.01,6,1,13,0.00
2013-2-23,88,75,69,70,67,62,95,78,45,30.04,29.90,13,4,19,0.00
2013-2-24,77,70,64,71,67,62,96,92,77,30.01,29.90,4,1,11,0.47
2013-2-25,84,71,63,72,66,62,98,84,55,29.98,29.80,7,1,14,0.00
2013-2-26,76,69,64,72,66,60,97,89,66,29.90,29.76,13,3,29,0.48
2013-2-27,74,64,55,61,54,48,94,71,46,30.01,29.90,7,3,17,0.00
2013-2-28,73,60,46,54,49,43,95,70,38,30.04,29.91,11,4,20,0.00
2013-3-1,67,55,47,48,40,32,87,59,31,30.06,29.93,10,4,18,0.00
2013-3-2,59,50,41,38,33,26,77,56,30,30.08,29.99,16,5,31,0.00
2013-3-3,53,44,37,33,31,28,80,61,44,30.20,30.04,12,4,20,0.00
2013-3-4,67,49,32,38,32,26,89,58,24,30.23,30.15,3,0,10,0.00
2013-3-5,77,59,41,57,45,36,91,63,34,30.23,30.03,8,3,16,0.00
2013-3-6,68,58,45,61,39,24,93,54,20,30.19,29.95,12,6,22,0.00
2013-3-7,68,51,37,44,37,31,90,61,33,30.27,30.17,5,1,22,0.00
2013-3-8,75,55,38,47,41,33,95,66,23,30.28,30.16,5,1,12,0.00
2013-3-9,76,58,43,52,48,41,95,71,38,30.28,30.19,5,1,10,0.00
2013-3-10,79,63,49,58,53,47,96,74,42,30.24,30.13,7,1,14,0.00
2013-3-11,78,65,50,61,56,48,97,76,50,30.17,29.94,6,1,13,0.00
2013-3-12,74,66,56,66,62,54,95,86,76,30.07,29.89,9,4,15,0.07
2013-3-13,76,60,46,54,40,27,95,57,17,30.22,30.07,10,2,17,0.00
2013-3-14,66,53,42,42,33,23,86,51,20,30.32,30.20,7,2,15,0.00
2013-3-15,73,54,36,48,37,29,100,60,25,30.34,30.18,6,1,12,0.00
2013-3-16,80,61,44,52,43,39,95,59,25,30.23,30.07,5,2,14,0.00
2013-3-17,77,63,47,61,52,44,100,72,41,30.19,30.03,6,1,13,0.01
2013-3-18,79,71,61,65,63,60,95,78,61,30.11,29.94,6,2,11,0.02
2013-3-19,86,72,61,65,61,58,97,73,42,30.08,29.93,5,1,12,0.00
2013-3-20,76,64,56,66,61,55,97,90,68,30.03,29.83,8,1,15,0.84
2013-3-21,70,57,44,56,42,27,100,64,22,30.02,29.91,7,2,15,0.01
2013-3-22,79,58,40,59,48,39,96,74,36,30.07,29.94,4,1,11,0.03
2013-3-23,85,71,60,73,65,58,98,84,59,30.03,29.80,11,2,18,0.06
2013-3-24,82,72,66,73,68,64,96,88,72,29.89,29.64,13,5,25,0.09
2013-3-25,71,63,53,64,46,28,94,58,21,30.08,29.74,9,5,19,0.00
2013-3-26,61,52,42,39,30,22,73,45,24,30.28,30.07,11,4,21,0.00
2013-3-27,64,48,33,38,32,26,88,58,26,30.36,30.24,6,1,14,0.00
2013-3-28,73,54,37,44,36,27,93,59,20,30.35,30.22,5,1,12,0.00
2013-3-29,75,58,40,48,39,31,93,57,21,30.38,30.23,4,1,12,0.00
2013-3-30,80,62,43,54,46,39,92,61,34,30.31,30.15,7,2,13,0.00
2013-3-31,83,69,56,58,53,48,86,60,33,30.22,30.03,9,2,18,0.00
2013-4-1,84,70,60,66,61,54,94,74,47,30.06,29.96,12,3,21,0.00
2013-4-2,83,69,58,62,55,49,95,66,32,30.13,30.03,3,1,13,0.00
2013-4-3,83,68,55,68,61,52,96,80,55,30.14,30.00,5,1,13,0.11
2013-4-4,73,69,65,69,66,63,97,91,81,30.06,29.88,10,2,20,0.03
2013-4-5,76,66,56,68,62,54,96,87,62,30.05,29.83,8,3,17,0.05
2013-4-6,77,63,51,60,55,50,95,77,54,30.20,30.03,8,3,14,0.00
2013-4-7,81,66,53,63,57,52,97,76,46,30.22,30.10,4,1,15,0.00
2013-4-8,85,68,57,64,60,56,96,79,44,30.18,30.09,3,0,9,0.00
2013-4-9,86,70,58,68,61,56,98,75,45,30.22,30.12,4,1,12,0.00
2013-4-10,86,72,55,69,63,54,96,76,48,30.18,30.02,4,1,11,0.00
2013-4-11,90,78,72,72,70,66,96,78,47,30.05,29.85,6,2,14,0.29
2013-4-12,83,77,73,74,72,69,95,85,68,29.94,29.84,9,4,19,0.00
2013-4-13,87,74,62,71,65,55,97,76,45,30.03,29.91,6,1,19,0.00
2013-4-14,88,72,61,73,66,57,96,83,59,30.03,29.86,8,1,14,0.40
2013-4-15,89,77,69,68,64,62,82,66,48,30.13,30.00,2,0,6,0.01
2013-4-16,86,74,65,72,67,63,97,80,58,30.20,30.09,5,1,12,0.00
2013-4-17,83,72,64,67,65,63,97,81,54,30.19,30.09,4,1,7,0.01
2013-4-18,88,75,62,71,66,60,98,75,42,30.10,29.99,4,1,10,0.00
2013-4-19,92,79,72,74,71,69,93,78,50,30.05,29.93,10,2,17,0.02
2013-4-20,76,64,57,70,60,54,94,89,80,30.22,29.99,6,2,11,0.01
2013-4-21,78,68,58,71,64,55,95,89,76,30.20,30.08,6,2,12,0.37
2013-4-22,78,68,63,70,65,60,97,91,71,30.13,30.04,9,3,17,0.02
2013-4-23,82,65,61,66,50,-100,95,70,46,30.17,30.06,6,-65,17,0.01
2013-4-24,88,56,53,66,18,-100,96,47,37,30.20,30.10,3,-266,10,0.00
2013-4-25,91,74,58,68,61,56,96,68,31,30.25,30.14,4,1,8,0.00
2013-4-26,88,74,61,67,64,58,95,72,43,30.29,30.19,5,1,9,0.00
2013-4-27,86,74,63,70,64,61,96,74,44,30.28,30.15,6,1,11,0.01
2013-4-28,85,72,61,69,64,59,96,77,52,30.18,30.03,5,1,11,0.00
2013-4-29,86,72,63,68,64,60,93,77,48,30.07,29.93,4,0,4,0.26
2013-4-30,90,74,66,71,66,63,96,81,41,30.06,29.94,5,1,10,0.30
2013-5-1,79,71,66,72,68,64,97,90,72,30.07,29.98,2,0,5,0.05
2013-5-2,71,68,65,70,67,64,97,96,94,30.01,29.86,4,0,6,2.36
2013-5-3,78,70,67,72,68,65,98,91,72,29.88,29.75,10,3,18,2.70
2013-5-4,84,74,68,72,68,66,97,85,62,29.82,29.70,7,2,12,0.05
2013-5-5,80,69,60,67,54,47,92,63,33,29.96,29.78,8,4,16,0.00
2013-5-6,78,67,58,59,55,51,90,68,43,30.04,29.92,8,3,16,0.00
2013-5-7,79,66,52,61,55,49,94,70,46,30.08,29.99,9,3,16,0.00
2013-5-8,84,70,56,65,59,54,95,70,42,30.17,30.05,8,2,13,0.00
2013-5-9,88,69,57,67,52,-100,95,65,39,30.19,30.10,3,-52,9,0.00
2013-5-10,93,77,59,72,65,57,95,70,42,30.17,30.03,6,1,13,0.00
2013-5-11,90,75,66,74,69,64,94,81,52,30.09,30.00,7,2,13,0.50
2013-5-12,90,77,66,72,67,64,96,75,48,30.07,29.98,8,2,14,0.00
2013-5-13,84,72,61,66,58,48,92,65,34,30.17,30.03,8,2,9,0.00
2013-5-14,85,69,51,56,51,47,92,59,28,30.26,30.16,3,1,8,0.00
2013-5-15,88,72,55,66,56,52,96,62,32,30.26,30.13,3,1,7,0.00
2013-5-16,89,73,59,67,61,56,95,69,38,30.18,30.05,3,1,7,0.00
2013-5-17,90,76,60,69,64,58,94,70,39,30.15,30.07,4,1,7,0.00
2013-5-18,95,78,64,73,67,61,95,72,41,30.16,30.03,4,1,6,0.00
2013-5-19,90,77,67,76,71,66,96,82,56,30.13,30.02,5,1,11,2.21
2013-5-20,92,75,69,74,69,66,96,83,48,30.12,30.02,9,0,18,0.56
2013-5-21,82,72,68,75,69,66,97,90,70,30.08,29.98,7,0,9,1.52
2013-5-22,87,74,66,74,70,65,97,86,60,30.01,29.94,6,0,9,0.06
2013-5-23,94,77,67,75,70,65,97,81,47,30.03,29.93,6,1,18,0.02
2013-5-24,94,80,68,75,67,63,96,68,37,30.14,29.99,7,1,12,0.01
2013-5-25,87,75,65,69,63,58,95,70,44,30.24,30.11,5,1,12,0.00
2013-5-26,87,71,56,65,58,54,95,67,35,30.26,30.18,4,1,9,0.00
2013-5-27,88,73,60,68,62,57,95,70,39,30.23,30.15,5,1,9,0.00
2013-5-28,90,76,63,72,67,60,95,76,52,30.20,30.10,5,1,11,0.00
2013-5-29,89,78,70,76,72,67,95,83,60,30.17,30.10,5,1,10,0.37
2013-5-30,84,76,72,77,72,69,95,87,69,30.17,30.09,6,1,9,0.22
2013-5-31,87,76,69,76,71,67,95,84,65,30.16,30.08,5,1,11,0.20
2013-6-1,88,78,71,77,72,69,96,84,66,30.12,30.02,5,1,10,0.00
2013-6-2,96,80,72,78,74,71,96,84,48,30.06,29.91,4,1,11,0.24
2013-6-3,93,80,72,77,73,70,96,84,54,30.00,29.90,4,1,8,0.01
2013-6-8,72,72,71,71,70,69,96,95,94,30.13,30.08,2,0,5,1.36
2013-6-9,92,78,70,78,74,69,98,89,59,30.15,30.06,3,0,12,0.25
2013-6-10,95,80,71,78,73,70,97,83,47,30.14,30.03,7,1,15,0.35
2013-6-11,91,76,71,80,73,69,97,91,63,30.13,30.05,7,0,10,0.83
2013-6-12,97,82,71,80,73,69,98,77,44,30.12,30.01,4,1,9,0.01
2013-6-13,95,83,73,78,73,70,95,75,53,30.06,29.91,6,1,12,0.00
2013-6-14,92,82,74,76,73,71,95,77,51,29.97,29.87,8,3,17,0.00
2013-6-15,89,81,75,78,74,71,96,81,65,30.11,29.94,4,1,10,0.09
2013-6-16,92,82,77,79,75,71,90,80,62,30.13,30.05,5,1,8,0.01
2013-6-17,94,82,74,81,76,72,97,84,53,30.12,29.99,4,1,7,1.03
2013-6-18,93,83,73,78,75,72,96,79,57,30.09,29.98,6,1,9,0.00
2013-6-19,92,82,74,79,75,70,95,79,61,30.07,29.98,6,1,8,0.00
2013-6-20,96,80,72,78,72,69,96,80,45,30.13,30.03,7,1,10,0.67
2013-6-21,94,76,70,76,71,68,97,87,52,30.17,30.08,8,0,14,2.03
2013-6-22,91,76,69,79,72,68,98,89,59,30.16,30.09,5,0,7,0.66
2013-6-23,91,79,70,78,74,69,97,84,58,30.19,30.11,3,0,10,0.00
2013-6-24,94,81,72,80,74,70,97,80,53,30.23,30.11,3,0,6,0.08
2013-6-25,93,82,71,77,72,67,96,76,47,30.19,30.07,3,0,11,0.00
2013-6-26,94,79,72,78,73,70,96,84,53,30.12,30.03,6,0,11,0.68
2013-6-27,94,80,70,78,73,68,97,82,55,30.08,29.95,9,1,12,0.01
2013-6-28,92,80,74,78,74,72,95,83,59,29.99,29.87,9,2,13,0.00
2013-6-29,90,80,74,78,75,72,95,84,58,29.90,29.82,10,2,13,0.18
2013-6-30,90,79,74,79,74,72,94,86,64,29.91,29.84,8,2,14,0.02
2013-7-1,85,77,72,76,73,70,94,88,74,30.07,29.89,6,3,15,0.21
2013-7-2,86,77,72,80,74,71,97,90,73,30.14,30.02,5,0,15,0.06
2013-7-3,90,77,72,80,74,70,96,90,66,30.17,30.09,7,1,21,0.52
2013-7-4,92,79,72,79,73,70,97,85,57,30.17,30.11,5,2,21,0.49
2013-7-6,92,89,86,77,76,75,71,65,59,30.16,30.13,3,2,9,0.00
2013-7-7,92,86,76,77,75,73,88,70,57,30.18,30.08,4,2,13,0.00
2013-7-8,93,82,73,78,74,71,96,78,55,30.21,30.11,4,0,6,0.00
2013-7-9,92,81,71,77,72,69,96,76,50,30.21,30.10,3,1,9,0.00
2013-7-10,93,81,71,77,73,69,96,78,54,30.13,30.00,4,0,6,0.62
2013-7-11,96,80,71,78,73,70,97,82,48,30.07,29.93,11,1,13,0.03
2013-7-12,88,79,73,79,74,71,96,86,68,29.99,29.92,7,1,11,0.16
2013-7-13,91,76,72,77,73,70,98,90,59,30.04,29.94,11,0,24,1.75
2013-7-14,88,76,70,77,73,69,99,92,64,30.14,30.01,3,0,24,0.98
2013-7-15,84,76,69,77,72,68,99,91,76,30.17,30.06,4,0,10,0.03
2013-7-16,89,78,72,76,73,71,98,86,64,30.20,30.14,6,1,12,0.11
2013-7-17,89,78,72,77,74,71,98,87,64,30.21,30.12,6,1,20,0.02
2013-7-18,84,77,72,75,73,71,97,86,69,30.14,30.08,5,0,6,0.32
2013-7-19,89,76,71,77,73,71,98,89,64,30.17,30.07,4,1,11,0.51
2013-7-20,90,77,73,80,74,72,98,91,66,30.14,30.04,4,0,7,0.37
2013-7-21,91,78,71,80,75,71,98,92,65,30.16,30.06,9,0,13,0.15
2013-7-22,90,77,73,79,75,72,98,92,68,30.16,30.08,6,1,13,0.27
2013-7-23,84,76,73,78,74,72,98,94,81,30.12,29.99,7,1,10,0.46
2013-7-24,85,78,72,79,75,71,97,92,79,30.02,29.90,8,2,20,1.21
2013-7-25,85,78,74,77,75,72,96,89,75,30.01,29.89,9,2,15,0.12
2013-7-26,92,80,72,79,75,72,98,85,60,30.04,29.97,4,0,10,0.00
2013-7-27,92,80,73,79,75,72,98,85,60,30.03,29.91,4,1,10,0.00
2013-7-28,89,78,72,78,74,71,98,88,63,30.08,29.96,6,0,8,0.09
2013-7-29,92,82,76,79,76,74,97,83,60,30.19,30.09,3,0,6,0.16
2013-7-30,93,82,73,79,75,71,98,82,51,30.21,30.11,3,0,6,0.00
2013-7-31,92,80,72,79,75,70,98,86,55,30.17,30.03,9,0,13,0.45
2013-8-1,91,78,72,78,74,71,98,88,59,30.11,29.99,4,0,12,0.02
2013-8-2,92,80,71,77,73,70,98,81,53,30.07,29.98,3,0,12,0.00
2013-8-3,90,80,74,79,75,73,97,86,62,30.12,30.02,7,2,15,0.00
2013-8-4,88,79,74,81,76,74,98,90,74,30.12,30.00,7,1,11,0.04
2013-8-5,92,81,74,81,76,72,98,87,61,30.05,29.93,7,1,12,0.67
2013-8-6,92,79,72,79,75,72,98,90,60,30.01,29.93,13,0,13,0.43
2013-8-7,92,80,75,80,76,74,98,88,59,30.01,29.95,4,0,7,0.02
2013-8-8,91,81,74,79,76,73,98,84,58,30.08,29.98,4,0,10,0.07
2013-8-9,90,80,73,81,75,72,98,87,62,30.10,30.01,3,0,6,0.03
2013-8-10,93,81,71,80,75,70,98,84,58,30.16,30.07,3,0,9,0.04
2013-8-11,94,82,72,79,74,71,98,80,51,30.19,30.09,2,0,5,0.00
2013-8-12,94,79,72,78,74,71,97,84,57,30.16,30.03,2,0,5,0.00
2013-8-13,94,82,73,78,74,72,97,78,54,30.09,29.95,2,0,7,0.00
2013-8-14,96,81,74,79,75,72,97,84,48,30.04,29.91,5,1,11,0.27
2013-8-15,94,81,73,78,74,71,98,82,51,30.07,29.95,6,1,9,0.03
2013-8-16,91,81,74,79,75,71,97,83,53,30.09,29.99,3,1,7,0.01
2013-8-17,92,79,73,80,75,72,97,89,64,30.13,30.01,4,0,7,1.78
2013-8-18,92,80,73,80,75,72,98,87,61,30.14,30.05,4,1,11,0.08
2013-8-19,88,78,73,80,75,72,98,90,68,30.12,30.01,3,0,10,0.04
2013-8-20,93,82,73,79,75,72,98,83,54,30.13,30.02,3,1,10,0.00
2013-8-21,92,78,73,80,75,71,98,90,63,30.15,30.08,6,1,11,0.37
2013-8-22,88,78,74,80,75,72,98,93,67,30.13,30.03,3,0,6,0.12
2013-8-23,89,77,72,80,75,71,98,94,68,30.07,30.00,5,0,7,0.91
2013-8-24,89,77,72,80,74,72,99,92,67,30.16,30.03,8,0,13,0.09
2013-8-25,86,78,72,78,74,72,98,90,72,30.21,30.12,3,1,5,0.01
2013-8-26,88,78,73,78,74,72,97,90,69,30.19,30.06,7,1,12,0.76
2013-8-27,88,78,71,76,72,69,98,83,59,30.11,30.03,5,1,9,0.01
2013-8-28,90,78,68,74,70,67,98,80,53,30.10,30.00,2,0,4,0.00
2013-8-29,92,80,70,75,72,69,97,77,48,30.07,29.94,3,0,6,0.00
2013-8-30,93,81,72,79,74,71,98,81,49,30.02,29.90,6,0,10,0.25
2013-8-31,91,80,72,78,74,69,97,84,59,30.00,29.91,10,1,12,0.02
2013-9-1,92,79,71,77,73,70,98,84,55,30.03,29.92,8,0,11,0.18
2013-9-2,92,79,71,78,73,71,98,83,56,30.03,29.94,4,1,6,0.00
2013-9-3,91,81,73,78,74,72,98,83,57,30.05,29.94,9,1,14,0.03
2013-9-4,91,79,72,79,74,70,98,87,61,30.12,30.01,2,0,6,0.04
2013-9-5,92,80,70,78,73,69,98,82,55,30.14,30.03,3,0,6,0.00
2013-9-6,91,77,71,80,74,69,98,91,64,30.09,30.00,8,0,15,0.66
2013-9-7,88,77,71,77,73,70,98,89,64,30.06,29.97,5,1,6,0.00
2013-9-8,89,78,70,76,72,69,98,83,61,30.01,29.92,5,1,10,0.01
2013-9-9,90,78,67,75,70,66,97,80,47,30.08,29.98,4,1,6,0.00
2013-9-10,89,79,70,75,72,69,96,81,55,30.15,30.04,5,1,11,0.00
2013-9-11,91,80,72,77,73,70,97,80,55,30.12,30.04,4,1,10,0.01
2013-9-12,89,78,71,76,73,70,98,86,59,30.07,29.92,4,0,7,0.02
2013-9-13,92,78,69,77,72,68,98,83,51,29.95,29.82,5,0,8,0.04
2013-9-14,92,81,72,77,74,71,98,81,53,30.02,29.86,3,0,6,0.00
2013-9-15,93,80,73,79,74,72,98,85,54,30.11,30.01,6,1,10,0.00
2013-9-16,92,80,72,76,73,70,97,81,51,30.11,30.01,4,1,7,0.00
2013-9-17,92,79,71,77,73,70,98,82,55,30.11,29.99,6,1,10,0.00
2013-9-18,87,78,72,77,73,70,96,85,65,30.08,30.01,6,2,13,0.02
2013-9-19,89,77,71,77,72,69,97,86,59,30.10,30.02,4,1,7,0.05
2013-9-20,88,76,67,73,69,66,97,81,57,30.08,29.94,3,0,5,0.01
2013-9-21,89,77,66,73,69,65,98,80,52,29.99,29.79,2,0,6,0.00
2013-9-22,90,78,72,77,73,70,97,88,64,29.89,29.78,6,1,10,0.21
2013-9-23,75,74,73,74,73,72,98,97,96,29.99,29.88,4,0,6,0.68
2013-9-24,84,76,71,77,74,70,98,94,78,29.99,29.86,8,1,13,0.39
2013-9-25,82,76,72,75,73,70,98,90,77,29.88,29.80,7,2,11,0.03
2013-9-26,89,80,71,78,73,67,98,83,49,29.91,29.80,7,2,14,0.01
2013-9-27,81,73,68,75,70,67,97,93,82,30.00,29.89,6,1,12,0.06
2013-9-28,82,74,70,75,71,68,98,91,79,30.06,29.95,5,1,13,0.02
2013-9-29,86,75,67,74,69,66,98,84,59,30.03,29.95,6,1,11,0.00
2013-9-30,87,75,67,73,70,66,98,85,58,30.05,29.95,5,0,10,0.00
2013-10-1,87,76,70,75,70,67,95,83,63,30.11,30.02,5,1,7,0.00
2013-10-2,87,74,66,73,68,65,96,82,60,30.11,30.03,4,1,11,0.00
2013-10-3,89,76,65,75,69,64,97,82,55,30.12,30.02,4,0,7,0.00
2013-10-4,90,77,68,75,71,67,98,83,53,30.13,30.03,3,0,7,0.00
2013-10-5,90,76,66,75,71,66,98,84,60,30.10,30.00,4,1,10,0.00
2013-10-6,91,76,68,76,71,67,98,86,55,30.02,29.89,5,0,11,0.08
2013-10-7,82,74,70,77,72,70,98,95,83,29.92,29.77,5,1,8,0.35
2013-10-8,86,76,72,77,73,70,98,91,70,29.99,29.80,11,3,15,0.02
2013-10-9,78,71,65,70,67,63,94,89,76,30.08,29.97,8,4,13,0.00
2013-10-10,85,72,61,70,65,60,98,81,49,30.10,30.00,7,1,13,0.02
2013-10-11,85,72,61,70,65,60,100,82,54,30.09,29.97,6,1,8,0.00
2013-10-12,85,72,61,69,63,60,98,77,45,30.08,30.00,6,1,9,0.00
2013-10-13,85,73,60,68,63,59,97,74,45,30.13,30.03,3,0,9,0.00
2013-10-14,85,73,64,70,66,63,97,83,55,30.09,29.97,9,2,14,0.00
2013-10-15,79,72,66,72,69,64,96,90,79,30.03,29.93,4,1,6,0.00
2013-10-16,87,76,70,73,70,67,97,85,54,30.02,29.92,3,0,7,0.00
2013-10-17,87,76,67,75,70,66,98,84,54,30.02,29.92,3,0,6,0.01
2013-10-18,88,76,66,75,70,66,98,83,56,30.03,29.92,2,0,4,0.00
2013-10-19,89,78,68,76,71,67,98,83,57,29.99,29.89,4,1,7,0.00
2013-10-20,86,76,70,75,72,68,97,87,68,30.01,29.90,4,1,9,0.00
2013-10-21,91,77,69,78,72,67,97,86,57,30.04,29.93,4,0,10,0.00
2013-10-22,89,76,71,73,71,70,98,87,57,29.99,29.84,7,1,12,0.01
2013-10-23,82,72,61,70,62,51,96,74,38,30.05,29.83,8,2,11,0.02
2013-10-24,70,62,55,60,53,48,91,75,63,30.21,30.05,4,1,9,0.00
2013-10-25,80,64,52,59,54,51,97,75,42,30.29,30.19,4,1,9,0.00
2013-10-26,79,63,51,58,53,48,96,74,36,30.26,30.14,3,0,5,0.01
2013-10-27,78,63,51,59,53,50,97,75,42,30.19,30.09,4,1,10,0.00
2013-10-28,83,66,50,64,58,49,96,78,45,30.24,30.14,2,0,5,0.00
2013-10-29,83,70,59,68,63,58,98,82,54,30.28,30.19,7,2,12,0.01
2013-10-30,84,71,62,70,65,60,97,83,56,30.27,30.15,4,1,9,0.00
2013-10-31,86,72,61,71,66,60,98,82,51,30.18,30.01,4,0,8,0.01
2013-11-1,89,77,69,73,69,63,97,79,43,30.04,29.89,8,2,16,0.00
2013-11-2,73,67,59,70,65,58,97,93,89,30.02,29.84,4,1,6,0.66
2013-11-3,75,62,52,61,54,47,98,77,40,30.17,30.00,9,2,13,0.01
2013-11-4,75,65,59,65,60,55,93,85,63,30.23,30.14,8,1,10,0.01
2013-11-5,82,72,64,70,66,62,96,82,58,30.21,30.14,7,2,15,0.03
2013-11-6,79,70,66,70,67,65,96,90,70,30.11,30.08,4,1,9,0.01
2013-11-7,80,70,64,70,68,63,98,92,69,30.10,29.99,3,0,9,0.01
2013-11-8,75,66,60,66,61,53,98,85,69,30.18,30.03,9,3,15,0.01
2013-11-9,80,67,58,66,61,56,95,82,58,30.23,30.15,6,1,12,0.00
2013-11-10,81,68,60,68,64,58,98,86,59,30.22,30.13,4,1,9,0.00
2013-11-11,81,68,61,69,64,60,97,86,60,30.22,30.11,4,1,9,0.01
2013-11-12,79,67,60,70,63,59,98,88,64,30.16,30.04,5,0,9,0.01
2013-11-13,64,58,52,58,50,47,87,75,59,30.37,30.13,11,6,24,0.00
2013-11-14,75,59,47,60,53,45,96,80,56,30.36,30.23,5,1,21,0.00
2013-11-15,71,64,54,65,61,53,96,91,77,30.25,30.12,2,0,5,0.16
2013-11-16,76,68,64,71,67,63,96,94,85,30.18,30.08,3,0,6,0.31
2013-11-17,86,74,67,73,69,64,97,85,62,30.13,30.02,4,0,11,0.00
2013-11-18,82,74,67,73,68,64,90,84,70,30.07,29.94,6,1,13,0.01
2013-11-19,76,68,62,66,62,56,90,81,61,30.02,29.92,6,2,14,0.00
2013-11-20,79,70,63,71,66,60,91,87,75,30.16,30.01,3,1,14,0.07
2013-11-21,78,70,67,71,67,64,91,89,80,30.24,30.14,4,1,12,0.10
2013-11-22,80,71,63,71,66,60,91,85,66,30.25,30.15,4,0,10,0.00
2013-11-23,83,70,61,69,64,59,92,81,53,30.16,30.03,3,0,6,0.01
2013-11-24,68,63,58,65,57,51,91,81,73,30.29,30.07,9,4,16,0.00
2013-11-25,75,66,59,60,57,52,90,73,55,30.30,30.13,6,2,16,0.00
2013-11-26,82,72,62,73,68,59,92,86,72,30.13,29.76,8,2,17,0.20
2013-11-27,73,60,40,70,55,36,92,83,68,30.25,29.72,11,6,24,0.41
2013-11-28,64,48,33,52,42,30,91,81,62,30.40,30.24,6,2,20,0.00
2013-11-29,70,57,48,60,52,45,92,83,65,30.42,30.33,8,4,15,0.00
2013-11-30,77,63,55,65,59,52,92,86,60,30.36,30.24,7,4,15,0.00
2013-12-1,74,64,60,65,61,58,93,88,72,30.24,30.02,5,2,13,0.00
2013-12-2,70,60,53,62,56,50,94,90,63,30.02,29.86,4,0,11,0.01
2013-12-3,78,63,51,62,57,49,93,81,57,30.03,29.92,3,0,7,0.00
2013-12-4,81,68,58,70,62,56,93,84,62,30.13,30.00,4,0,9,0.00
2013-12-5,82,70,59,69,64,57,93,83,59,30.22,30.12,3,0,6,0.01
2013-12-6,85,71,60,72,66,58,93,83,59,30.22,30.12,5,1,9,0.00
2013-12-7,83,71,64,70,65,61,93,82,56,30.28,30.17,3,0,6,0.00
2013-12-8,84,69,60,72,64,58,93,85,57,30.28,30.14,4,0,11,0.00
2013-12-9,84,71,62,72,65,60,93,83,58,30.23,30.12,6,1,11,0.01
2013-12-10,83,72,61,71,65,59,93,81,56,30.24,30.09,7,2,19,0.00
2013-12-11,80,66,54,69,60,51,91,83,66,30.30,30.19,6,1,10,0.00
2013-12-12,69,58,45,58,45,28,92,66,26,30.37,30.24,7,3,13,0.00
2013-12-13,74,58,46,57,51,42,92,78,52,30.32,30.17,4,1,12,0.00
2013-12-14,83,68,54,72,63,52,92,85,66,30.17,29.96,7,1,15,0.00
2013-12-15,73,66,58,70,62,55,92,87,77,30.17,29.89,7,2,12,0.51
2013-12-16,63,51,41,55,45,39,92,80,46,30.28,30.16,8,1,11,0.00
2013-12-17,70,52,40,54,46,38,94,81,54,30.30,30.19,5,1,11,0.00
2013-12-18,68,52,40,48,43,37,92,75,45,30.33,30.24,6,1,12,0.01
2013-12-19,74,54,39,58,48,37,92,84,49,30.33,30.22,2,0,5,0.00
2013-12-20,82,63,47,64,56,45,94,80,53,30.26,30.15,4,0,7,0.01
2013-12-21,85,71,61,71,66,58,93,84,60,30.19,30.06,6,1,12,0.00
2013-12-22,85,73,63,72,67,61,94,84,63,30.18,30.10,8,1,14,0.01
2013-12-23,85,74,66,73,69,64,93,83,59,30.21,30.10,7,2,14,0.00
2013-12-24,72,61,47,69,52,38,92,75,37,30.31,30.12,10,3,16,0.02
2013-12-25,73,56,43,58,50,38,92,79,57,30.30,30.20,4,1,10,0.00
2013-12-26,75,61,55,63,56,53,93,86,65,30.28,30.15,5,2,11,0.00
2013-12-27,68,62,56,64,59,54,91,90,86,30.31,30.21,6,3,9,0.01
2013-12-28,75,68,62,71,65,60,93,91,84,30.27,30.04,4,1,9,0.14
2013-12-29,77,71,64,73,68,62,92,90,84,30.06,29.92,5,1,13,0.39
2013-12-30,69,60,54,62,55,47,93,83,51,30.25,30.03,5,1,13,0.01
2013-12-31,68,59,52,54,51,48,91,78,51,30.35,30.21,6,1,7,0.00
2014-1-1,63,59,56,60,56,53,92,90,86,30.30,30.10,4,1,9,0.09
2014-1-2,79,66,57,72,63,53,94,91,80,30.10,29.85,10,2,14,0.31